sensor_id;sensor_type;location;lat;lon;timestamp;P1;durP1;ratioP1;P2;durP2;ratioP2
51758;SDS011;66684;47.568;18.734;2023-05-07T00:00:12;11.90;;;10.57;;
51758;SDS011;66684;47.568;18.734;2023-05-07T00:02:41;13.43;;;12.02;;
51758;SDS011;66684;47.568;18.734;2023-05-07T00:05:07;16.25;;;11.90;;
51758;SDS011;66684;47.568;18.734;2023-05-07T00:07:33;15.55;;;11.32;;
51758;SDS011;66684;47.568;18.734;2023-05-07T00:09:58;15.60;;;11.93;;
51758;SDS011;66684;47.568;18.734;2023-05-07T00:12:24;18.70;;;13.55;;
51758;SDS011;66684;47.568;18.734;2023-05-07T00:14:50;15.05;;;12.37;;
51758;SDS011;66684;47.568;18.734;2023-05-07T00:17:16;17.30;;;12.10;;
51758;SDS011;66684;47.568;18.734;2023-05-07T00:19:42;15.88;;;11.25;;
51758;SDS011;66684;47.568;18.734;2023-05-07T00:22:08;15.20;;;12.02;;
51758;SDS011;66684;47.568;18.734;2023-05-07T00:24:34;13.15;;;11.57;;
51758;SDS011;66684;47.568;18.734;2023-05-07T00:27:00;14.10;;;11.30;;
51758;SDS011;66684;47.568;18.734;2023-05-07T00:29:26;15.32;;;11.70;;
51758;SDS011;66684;47.568;18.734;2023-05-07T00:31:52;13.23;;;10.85;;
51758;SDS011;66684;47.568;18.734;2023-05-07T00:34:20;16.70;;;10.50;;
51758;SDS011;66684;47.568;18.734;2023-05-07T00:36:46;12.95;;;9.52;;
51758;SDS011;66684;47.568;18.734;2023-05-07T00:39:12;12.00;;;9.52;;
51758;SDS011;66684;47.568;18.734;2023-05-07T00:41:37;11.43;;;9.35;;
51758;SDS011;66684;47.568;18.734;2023-05-07T00:44:03;13.23;;;9.30;;
51758;SDS011;66684;47.568;18.734;2023-05-07T00:46:30;12.40;;;9.73;;
51758;SDS011;66684;47.568;18.734;2023-05-07T00:48:57;12.52;;;10.45;;
51758;SDS011;66684;47.568;18.734;2023-05-07T00:51:23;13.57;;;9.85;;
51758;SDS011;66684;47.568;18.734;2023-05-07T00:53:52;12.70;;;10.20;;
51758;SDS011;66684;47.568;18.734;2023-05-07T00:56:18;15.88;;;10.82;;
51758;SDS011;66684;47.568;18.734;2023-05-07T00:58:46;14.43;;;12.25;;
51758;SDS011;66684;47.568;18.734;2023-05-07T01:01:12;16.23;;;11.10;;
51758;SDS011;66684;47.568;18.734;2023-05-07T01:03:38;13.15;;;11.48;;
51758;SDS011;66684;47.568;18.734;2023-05-07T01:06:04;12.00;;;10.10;;
51758;SDS011;66684;47.568;18.734;2023-05-07T01:08:31;11.52;;;10.00;;
51758;SDS011;66684;47.568;18.734;2023-05-07T01:10:58;11.88;;;10.00;;
51758;SDS011;66684;47.568;18.734;2023-05-07T01:13:25;14.13;;;10.90;;
51758;SDS011;66684;47.568;18.734;2023-05-07T01:15:51;12.93;;;10.23;;
51758;SDS011;66684;47.568;18.734;2023-05-07T01:18:17;13.95;;;11.30;;
51758;SDS011;66684;47.568;18.734;2023-05-07T01:20:43;11.75;;;9.95;;
51758;SDS011;66684;47.568;18.734;2023-05-07T01:23:09;15.63;;;10.55;;
51758;SDS011;66684;47.568;18.734;2023-05-07T01:25:36;13.77;;;10.23;;
51758;SDS011;66684;47.568;18.734;2023-05-07T01:28:02;14.90;;;10.27;;
51758;SDS011;66684;47.568;18.734;2023-05-07T01:30:28;10.35;;;9.02;;
51758;SDS011;66684;47.568;18.734;2023-05-07T01:32:57;10.80;;;8.75;;
51758;SDS011;66684;47.568;18.734;2023-05-07T01:35:28;13.20;;;9.97;;
51758;SDS011;66684;47.568;18.734;2023-05-07T01:37:55;16.52;;;10.57;;
51758;SDS011;66684;47.568;18.734;2023-05-07T01:40:22;10.70;;;9.60;;
51758;SDS011;66684;47.568;18.734;2023-05-07T01:42:50;13.77;;;10.35;;
51758;SDS011;66684;47.568;18.734;2023-05-07T01:45:16;10.75;;;8.80;;
51758;SDS011;66684;47.568;18.734;2023-05-07T01:47:42;12.98;;;10.38;;
51758;SDS011;66684;47.568;18.734;2023-05-07T01:50:08;14.43;;;10.77;;
51758;SDS011;66684;47.568;18.734;2023-05-07T01:52:36;12.80;;;10.48;;
51758;SDS011;66684;47.568;18.734;2023-05-07T01:55:04;13.43;;;11.02;;
51758;SDS011;66684;47.568;18.734;2023-05-07T01:57:31;13.05;;;10.80;;
51758;SDS011;66684;47.568;18.734;2023-05-07T01:59:57;12.25;;;9.90;;
51758;SDS011;66684;47.568;18.734;2023-05-07T02:02:23;14.40;;;10.95;;
51758;SDS011;66684;47.568;18.734;2023-05-07T02:04:49;12.52;;;10.10;;
51758;SDS011;66684;47.568;18.734;2023-05-07T02:07:14;14.40;;;10.23;;
51758;SDS011;66684;47.568;18.734;2023-05-07T02:09:41;12.88;;;10.40;;
51758;SDS011;66684;47.568;18.734;2023-05-07T02:12:07;12.30;;;9.57;;
51758;SDS011;66684;47.568;18.734;2023-05-07T02:14:32;13.27;;;9.02;;
51758;SDS011;66684;47.568;18.734;2023-05-07T02:16:58;10.32;;;8.18;;
51758;SDS011;66684;47.568;18.734;2023-05-07T02:19:24;11.93;;;8.32;;
51758;SDS011;66684;47.568;18.734;2023-05-07T02:21:50;14.38;;;9.00;;
51758;SDS011;66684;47.568;18.734;2023-05-07T02:24:16;9.35;;;7.40;;
51758;SDS011;66684;47.568;18.734;2023-05-07T02:26:42;10.60;;;7.00;;
51758;SDS011;66684;47.568;18.734;2023-05-07T02:29:08;11.35;;;7.32;;
51758;SDS011;66684;47.568;18.734;2023-05-07T02:31:34;7.05;;;6.35;;
51758;SDS011;66684;47.568;18.734;2023-05-07T02:34:00;9.23;;;5.87;;
51758;SDS011;66684;47.568;18.734;2023-05-07T02:36:26;7.20;;;5.95;;
51758;SDS011;66684;47.568;18.734;2023-05-07T02:38:52;12.95;;;9.48;;
51758;SDS011;66684;47.568;18.734;2023-05-07T02:41:18;10.52;;;8.07;;
51758;SDS011;66684;47.568;18.734;2023-05-07T02:43:44;8.50;;;7.07;;
51758;SDS011;66684;47.568;18.734;2023-05-07T02:46:10;8.55;;;6.47;;
51758;SDS011;66684;47.568;18.734;2023-05-07T02:48:36;11.35;;;6.32;;
51758;SDS011;66684;47.568;18.734;2023-05-07T02:51:02;7.28;;;5.90;;
51758;SDS011;66684;47.568;18.734;2023-05-07T02:53:29;10.48;;;6.07;;
51758;SDS011;66684;47.568;18.734;2023-05-07T02:55:55;8.32;;;6.43;;
51758;SDS011;66684;47.568;18.734;2023-05-07T02:58:22;8.48;;;6.18;;
51758;SDS011;66684;47.568;18.734;2023-05-07T03:00:48;8.80;;;6.25;;
51758;SDS011;66684;47.568;18.734;2023-05-07T03:03:14;8.80;;;5.85;;
51758;SDS011;66684;47.568;18.734;2023-05-07T03:05:40;9.60;;;5.90;;
51758;SDS011;66684;47.568;18.734;2023-05-07T03:08:08;9.63;;;5.95;;
51758;SDS011;66684;47.568;18.734;2023-05-07T03:10:34;8.27;;;5.62;;
51758;SDS011;66684;47.568;18.734;2023-05-07T03:13:01;7.43;;;5.70;;
51758;SDS011;66684;47.568;18.734;2023-05-07T03:15:27;5.82;;;5.22;;
51758;SDS011;66684;47.568;18.734;2023-05-07T03:17:53;6.70;;;5.00;;
51758;SDS011;66684;47.568;18.734;2023-05-07T03:20:19;6.57;;;5.43;;
51758;SDS011;66684;47.568;18.734;2023-05-07T03:22:45;9.02;;;6.65;;
51758;SDS011;66684;47.568;18.734;2023-05-07T03:25:10;89.85;;;41.80;;
51758;SDS011;66684;47.568;18.734;2023-05-07T03:27:38;96.65;;;45.92;;
51758;SDS011;66684;47.568;18.734;2023-05-07T03:30:04;37.47;;;18.10;;
51758;SDS011;66684;47.568;18.734;2023-05-07T03:32:30;38.17;;;19.90;;
51758;SDS011;66684;47.568;18.734;2023-05-07T03:34:56;67.75;;;32.53;;
51758;SDS011;66684;47.568;18.734;2023-05-07T03:37:22;53.65;;;28.05;;
51758;SDS011;66684;47.568;18.734;2023-05-07T03:39:48;51.95;;;24.52;;
51758;SDS011;66684;47.568;18.734;2023-05-07T03:42:14;28.02;;;14.35;;
51758;SDS011;66684;47.568;18.734;2023-05-07T03:44:40;38.25;;;17.60;;
51758;SDS011;66684;47.568;18.734;2023-05-07T03:47:06;42.83;;;21.48;;
51758;SDS011;66684;47.568;18.734;2023-05-07T03:49:32;39.90;;;18.77;;
51758;SDS011;66684;47.568;18.734;2023-05-07T03:51:57;29.80;;;13.38;;
51758;SDS011;66684;47.568;18.734;2023-05-07T03:54:23;15.95;;;9.93;;
51758;SDS011;66684;47.568;18.734;2023-05-07T03:56:49;16.37;;;9.27;;
51758;SDS011;66684;47.568;18.734;2023-05-07T03:59:15;12.75;;;8.13;;
51758;SDS011;66684;47.568;18.734;2023-05-07T04:01:41;13.65;;;8.43;;
51758;SDS011;66684;47.568;18.734;2023-05-07T04:04:07;13.30;;;9.27;;
51758;SDS011;66684;47.568;18.734;2023-05-07T04:06:33;11.65;;;10.20;;
51758;SDS011;66684;47.568;18.734;2023-05-07T04:08:59;13.73;;;11.30;;
51758;SDS011;66684;47.568;18.734;2023-05-07T04:11:25;13.50;;;11.05;;
51758;SDS011;66684;47.568;18.734;2023-05-07T04:13:50;15.13;;;10.95;;
51758;SDS011;66684;47.568;18.734;2023-05-07T04:16:16;16.92;;;11.95;;
51758;SDS011;66684;47.568;18.734;2023-05-07T04:18:42;13.70;;;11.35;;
51758;SDS011;66684;47.568;18.734;2023-05-07T04:21:15;14.13;;;11.35;;
51758;SDS011;66684;47.568;18.734;2023-05-07T04:23:42;13.23;;;11.20;;
51758;SDS011;66684;47.568;18.734;2023-05-07T04:26:08;16.62;;;11.93;;
51758;SDS011;66684;47.568;18.734;2023-05-07T04:28:34;16.65;;;11.68;;
51758;SDS011;66684;47.568;18.734;2023-05-07T04:31:00;14.35;;;11.98;;
51758;SDS011;66684;47.568;18.734;2023-05-07T04:33:26;15.38;;;12.43;;
51758;SDS011;66684;47.568;18.734;2023-05-07T04:35:52;19.75;;;12.35;;
51758;SDS011;66684;47.568;18.734;2023-05-07T04:38:18;15.93;;;11.65;;
51758;SDS011;66684;47.568;18.734;2023-05-07T04:40:44;15.77;;;10.98;;
51758;SDS011;66684;47.568;18.734;2023-05-07T04:43:10;15.30;;;11.45;;
51758;SDS011;66684;47.568;18.734;2023-05-07T04:45:36;14.20;;;10.68;;
51758;SDS011;66684;47.568;18.734;2023-05-07T04:48:02;12.48;;;10.65;;
51758;SDS011;66684;47.568;18.734;2023-05-07T04:50:28;14.93;;;11.23;;
51758;SDS011;66684;47.568;18.734;2023-05-07T04:52:54;12.23;;;10.50;;
51758;SDS011;66684;47.568;18.734;2023-05-07T04:55:20;13.13;;;10.80;;
51758;SDS011;66684;47.568;18.734;2023-05-07T04:57:46;14.43;;;10.95;;
51758;SDS011;66684;47.568;18.734;2023-05-07T05:00:12;18.45;;;12.60;;
51758;SDS011;66684;47.568;18.734;2023-05-07T05:02:40;15.57;;;11.40;;
51758;SDS011;66684;47.568;18.734;2023-05-07T05:05:06;14.87;;;11.30;;
51758;SDS011;66684;47.568;18.734;2023-05-07T05:07:33;13.18;;;10.13;;
51758;SDS011;66684;47.568;18.734;2023-05-07T05:09:58;11.90;;;9.88;;
51758;SDS011;66684;47.568;18.734;2023-05-07T05:12:25;13.07;;;10.02;;
51758;SDS011;66684;47.568;18.734;2023-05-07T05:14:50;14.25;;;9.80;;
51758;SDS011;66684;47.568;18.734;2023-05-07T05:17:17;13.23;;;10.18;;
51758;SDS011;66684;47.568;18.734;2023-05-07T05:19:43;13.50;;;10.20;;
51758;SDS011;66684;47.568;18.734;2023-05-07T05:22:09;13.07;;;9.65;;
51758;SDS011;66684;47.568;18.734;2023-05-07T05:24:35;12.50;;;9.90;;
51758;SDS011;66684;47.568;18.734;2023-05-07T05:27:01;10.50;;;7.85;;
51758;SDS011;66684;47.568;18.734;2023-05-07T05:29:27;7.22;;;6.30;;
51758;SDS011;66684;47.568;18.734;2023-05-07T05:31:53;8.82;;;6.43;;
51758;SDS011;66684;47.568;18.734;2023-05-07T05:34:19;8.60;;;6.90;;
51758;SDS011;66684;47.568;18.734;2023-05-07T05:36:45;8.80;;;6.80;;
51758;SDS011;66684;47.568;18.734;2023-05-07T05:39:11;8.57;;;6.20;;
51758;SDS011;66684;47.568;18.734;2023-05-07T05:41:37;8.35;;;7.03;;
51758;SDS011;66684;47.568;18.734;2023-05-07T05:44:03;11.12;;;7.70;;
51758;SDS011;66684;47.568;18.734;2023-05-07T05:46:29;11.75;;;7.12;;
51758;SDS011;66684;47.568;18.734;2023-05-07T05:48:55;10.00;;;7.40;;
51758;SDS011;66684;47.568;18.734;2023-05-07T05:51:21;8.88;;;7.87;;
51758;SDS011;66684;47.568;18.734;2023-05-07T05:53:47;11.35;;;8.68;;
51758;SDS011;66684;47.568;18.734;2023-05-07T05:56:13;10.50;;;8.23;;
51758;SDS011;66684;47.568;18.734;2023-05-07T05:58:39;10.88;;;7.97;;
51758;SDS011;66684;47.568;18.734;2023-05-07T06:01:04;10.52;;;7.45;;
51758;SDS011;66684;47.568;18.734;2023-05-07T06:03:30;8.15;;;7.20;;
51758;SDS011;66684;47.568;18.734;2023-05-07T06:05:57;8.90;;;6.93;;
51758;SDS011;66684;47.568;18.734;2023-05-07T06:08:25;8.32;;;7.40;;
51758;SDS011;66684;47.568;18.734;2023-05-07T06:10:54;9.88;;;6.72;;
51758;SDS011;66684;47.568;18.734;2023-05-07T06:13:20;10.07;;;6.60;;
51758;SDS011;66684;47.568;18.734;2023-05-07T06:15:46;6.82;;;5.87;;
51758;SDS011;66684;47.568;18.734;2023-05-07T06:18:12;9.50;;;5.70;;
51758;SDS011;66684;47.568;18.734;2023-05-07T06:20:38;6.57;;;4.60;;
51758;SDS011;66684;47.568;18.734;2023-05-07T06:23:03;7.22;;;5.15;;
51758;SDS011;66684;47.568;18.734;2023-05-07T06:25:29;8.27;;;5.68;;
51758;SDS011;66684;47.568;18.734;2023-05-07T06:27:55;7.45;;;5.47;;
51758;SDS011;66684;47.568;18.734;2023-05-07T06:30:21;6.97;;;5.87;;
51758;SDS011;66684;47.568;18.734;2023-05-07T06:32:47;8.23;;;6.40;;
51758;SDS011;66684;47.568;18.734;2023-05-07T06:35:13;10.25;;;6.93;;
51758;SDS011;66684;47.568;18.734;2023-05-07T06:37:40;7.62;;;6.22;;
51758;SDS011;66684;47.568;18.734;2023-05-07T06:40:08;6.80;;;5.90;;
51758;SDS011;66684;47.568;18.734;2023-05-07T06:42:35;7.28;;;4.30;;
51758;SDS011;66684;47.568;18.734;2023-05-07T06:45:02;7.37;;;5.25;;
51758;SDS011;66684;47.568;18.734;2023-05-07T06:47:28;8.27;;;6.47;;
51758;SDS011;66684;47.568;18.734;2023-05-07T06:49:54;8.98;;;6.55;;
51758;SDS011;66684;47.568;18.734;2023-05-07T06:52:20;10.15;;;6.90;;
51758;SDS011;66684;47.568;18.734;2023-05-07T06:54:45;9.82;;;7.03;;
51758;SDS011;66684;47.568;18.734;2023-05-07T06:57:11;15.57;;;8.43;;
51758;SDS011;66684;47.568;18.734;2023-05-07T06:59:37;12.63;;;8.25;;
51758;SDS011;66684;47.568;18.734;2023-05-07T07:02:03;10.80;;;7.72;;
51758;SDS011;66684;47.568;18.734;2023-05-07T07:04:29;11.73;;;8.15;;
51758;SDS011;66684;47.568;18.734;2023-05-07T07:06:55;12.75;;;9.43;;
51758;SDS011;66684;47.568;18.734;2023-05-07T07:09:22;10.85;;;9.23;;
51758;SDS011;66684;47.568;18.734;2023-05-07T07:11:48;14.63;;;10.25;;
51758;SDS011;66684;47.568;18.734;2023-05-07T07:14:14;14.20;;;10.98;;
51758;SDS011;66684;47.568;18.734;2023-05-07T07:16:40;12.40;;;10.88;;
51758;SDS011;66684;47.568;18.734;2023-05-07T07:19:06;15.02;;;11.15;;
51758;SDS011;66684;47.568;18.734;2023-05-07T07:21:32;14.63;;;10.50;;
51758;SDS011;66684;47.568;18.734;2023-05-07T07:23:58;16.42;;;11.52;;
51758;SDS011;66684;47.568;18.734;2023-05-07T07:26:24;13.40;;;10.70;;
51758;SDS011;66684;47.568;18.734;2023-05-07T07:28:50;11.82;;;10.10;;
51758;SDS011;66684;47.568;18.734;2023-05-07T07:31:15;12.48;;;10.13;;
51758;SDS011;66684;47.568;18.734;2023-05-07T07:33:41;17.00;;;10.80;;
51758;SDS011;66684;47.568;18.734;2023-05-07T07:36:07;16.65;;;10.55;;
51758;SDS011;66684;47.568;18.734;2023-05-07T07:38:33;13.68;;;10.57;;
51758;SDS011;66684;47.568;18.734;2023-05-07T07:41:00;12.45;;;10.25;;
51758;SDS011;66684;47.568;18.734;2023-05-07T07:43:27;17.17;;;11.05;;
51758;SDS011;66684;47.568;18.734;2023-05-07T07:45:53;16.48;;;11.20;;
51758;SDS011;66684;47.568;18.734;2023-05-07T07:48:19;14.68;;;10.80;;
51758;SDS011;66684;47.568;18.734;2023-05-07T07:50:45;12.25;;;10.48;;
51758;SDS011;66684;47.568;18.734;2023-05-07T07:53:14;12.55;;;10.20;;
51758;SDS011;66684;47.568;18.734;2023-05-07T07:55:40;11.32;;;10.10;;
51758;SDS011;66684;47.568;18.734;2023-05-07T07:58:06;11.95;;;9.35;;
51758;SDS011;66684;47.568;18.734;2023-05-07T08:00:32;15.18;;;9.30;;
51758;SDS011;66684;47.568;18.734;2023-05-07T08:02:58;10.55;;;9.13;;
51758;SDS011;66684;47.568;18.734;2023-05-07T08:05:24;11.40;;;9.00;;
51758;SDS011;66684;47.568;18.734;2023-05-07T08:07:50;11.27;;;9.13;;
51758;SDS011;66684;47.568;18.734;2023-05-07T08:10:19;12.57;;;9.52;;
51758;SDS011;66684;47.568;18.734;2023-05-07T08:12:48;9.45;;;8.40;;
51758;SDS011;66684;47.568;18.734;2023-05-07T08:15:15;13.52;;;8.43;;
51758;SDS011;66684;47.568;18.734;2023-05-07T08:17:41;10.57;;;8.52;;
51758;SDS011;66684;47.568;18.734;2023-05-07T08:20:07;8.45;;;6.43;;
51758;SDS011;66684;47.568;18.734;2023-05-07T08:22:34;7.85;;;5.32;;
51758;SDS011;66684;47.568;18.734;2023-05-07T08:25:01;7.43;;;5.12;;
51758;SDS011;66684;47.568;18.734;2023-05-07T08:27:27;7.82;;;5.00;;
51758;SDS011;66684;47.568;18.734;2023-05-07T08:29:53;7.65;;;5.20;;
51758;SDS011;66684;47.568;18.734;2023-05-07T08:32:19;8.48;;;5.87;;
51758;SDS011;66684;47.568;18.734;2023-05-07T08:34:45;9.00;;;6.57;;
51758;SDS011;66684;47.568;18.734;2023-05-07T08:37:10;10.05;;;7.80;;
51758;SDS011;66684;47.568;18.734;2023-05-07T08:39:36;11.75;;;7.72;;
51758;SDS011;66684;47.568;18.734;2023-05-07T08:42:02;10.18;;;8.35;;
51758;SDS011;66684;47.568;18.734;2023-05-07T08:44:33;13.07;;;10.77;;
51758;SDS011;66684;47.568;18.734;2023-05-07T08:47:01;14.48;;;10.55;;
51758;SDS011;66684;47.568;18.734;2023-05-07T08:49:28;13.25;;;11.43;;
51758;SDS011;66684;47.568;18.734;2023-05-07T08:51:54;14.38;;;10.80;;
51758;SDS011;66684;47.568;18.734;2023-05-07T08:54:21;14.15;;;9.93;;
51758;SDS011;66684;47.568;18.734;2023-05-07T08:56:47;12.82;;;9.95;;
51758;SDS011;66684;47.568;18.734;2023-05-07T08:59:13;12.27;;;10.48;;
51758;SDS011;66684;47.568;18.734;2023-05-07T09:01:39;11.95;;;10.15;;
51758;SDS011;66684;47.568;18.734;2023-05-07T09:04:05;13.70;;;10.00;;
51758;SDS011;66684;47.568;18.734;2023-05-07T09:06:32;12.50;;;9.15;;
51758;SDS011;66684;47.568;18.734;2023-05-07T09:08:59;11.65;;;9.70;;
51758;SDS011;66684;47.568;18.734;2023-05-07T09:11:26;9.93;;;8.60;;
51758;SDS011;66684;47.568;18.734;2023-05-07T09:13:53;10.25;;;7.43;;
51758;SDS011;66684;47.568;18.734;2023-05-07T09:16:21;10.93;;;7.82;;
51758;SDS011;66684;47.568;18.734;2023-05-07T09:18:48;11.57;;;7.55;;
51758;SDS011;66684;47.568;18.734;2023-05-07T09:21:17;11.12;;;6.12;;
51758;SDS011;66684;47.568;18.734;2023-05-07T09:23:43;8.00;;;6.30;;
51758;SDS011;66684;47.568;18.734;2023-05-07T09:26:10;8.50;;;6.15;;
51758;SDS011;66684;47.568;18.734;2023-05-07T09:28:38;11.65;;;6.22;;
51758;SDS011;66684;47.568;18.734;2023-05-07T09:31:05;8.05;;;6.68;;
51758;SDS011;66684;47.568;18.734;2023-05-07T09:33:31;8.88;;;7.82;;
51758;SDS011;66684;47.568;18.734;2023-05-07T09:35:57;12.43;;;8.30;;
51758;SDS011;66684;47.568;18.734;2023-05-07T09:38:23;12.27;;;9.15;;
51758;SDS011;66684;47.568;18.734;2023-05-07T09:41:00;8.18;;;7.18;;
51758;SDS011;66684;47.568;18.734;2023-05-07T09:43:32;9.30;;;7.35;;
51758;SDS011;66684;47.568;18.734;2023-05-07T09:46:02;18.33;;;8.68;;
51758;SDS011;66684;47.568;18.734;2023-05-07T09:48:31;10.10;;;7.68;;
51758;SDS011;66684;47.568;18.734;2023-05-07T09:51:01;9.30;;;7.20;;
51758;SDS011;66684;47.568;18.734;2023-05-07T09:53:29;11.25;;;7.57;;
51758;SDS011;66684;47.568;18.734;2023-05-07T09:55:56;7.32;;;6.45;;
51758;SDS011;66684;47.568;18.734;2023-05-07T09:58:23;6.50;;;5.20;;
51758;SDS011;66684;47.568;18.734;2023-05-07T10:00:51;5.50;;;3.35;;
51758;SDS011;66684;47.568;18.734;2023-05-07T10:03:18;6.22;;;3.90;;
51758;SDS011;66684;47.568;18.734;2023-05-07T10:05:46;5.00;;;4.25;;
51758;SDS011;66684;47.568;18.734;2023-05-07T10:08:13;14.43;;;4.55;;
51758;SDS011;66684;47.568;18.734;2023-05-07T10:10:42;2.33;;;1.75;;
51758;SDS011;66684;47.568;18.734;2023-05-07T10:13:08;3.45;;;2.17;;
51758;SDS011;66684;47.568;18.734;2023-05-07T10:15:36;5.37;;;2.42;;
51758;SDS011;66684;47.568;18.734;2023-05-07T10:18:03;2.15;;;1.83;;
51758;SDS011;66684;47.568;18.734;2023-05-07T10:20:29;5.30;;;2.12;;
51758;SDS011;66684;47.568;18.734;2023-05-07T10:22:56;4.47;;;2.40;;
51758;SDS011;66684;47.568;18.734;2023-05-07T10:25:30;3.65;;;2.60;;
51758;SDS011;66684;47.568;18.734;2023-05-07T10:28:02;3.72;;;2.60;;
51758;SDS011;66684;47.568;18.734;2023-05-07T10:33:06;4.70;;;2.20;;
51758;SDS011;66684;47.568;18.734;2023-05-07T10:35:41;5.28;;;3.03;;
51758;SDS011;66684;47.568;18.734;2023-05-07T10:38:09;4.78;;;2.47;;
51758;SDS011;66684;47.568;18.734;2023-05-07T10:40:35;5.18;;;2.10;;
51758;SDS011;66684;47.568;18.734;2023-05-07T10:43:02;5.20;;;2.33;;
51758;SDS011;66684;47.568;18.734;2023-05-07T10:45:32;3.12;;;2.20;;
51758;SDS011;66684;47.568;18.734;2023-05-07T10:50:34;3.83;;;2.85;;
51758;SDS011;66684;47.568;18.734;2023-05-07T10:55:42;4.18;;;3.20;;
51758;SDS011;66684;47.568;18.734;2023-05-07T11:00:47;5.90;;;4.40;;
51758;SDS011;66684;47.568;18.734;2023-05-07T11:03:14;5.93;;;3.17;;
51758;SDS011;66684;47.568;18.734;2023-05-07T11:05:41;7.43;;;5.60;;
51758;SDS011;66684;47.568;18.734;2023-05-07T11:08:08;5.78;;;3.28;;
51758;SDS011;66684;47.568;18.734;2023-05-07T11:10:54;4.45;;;2.33;;
51758;SDS011;66684;47.568;18.734;2023-05-07T11:13:41;3.85;;;2.90;;
51758;SDS011;66684;47.568;18.734;2023-05-07T11:16:24;3.55;;;3.20;;
51758;SDS011;66684;47.568;18.734;2023-05-07T11:18:52;6.05;;;3.20;;
51758;SDS011;66684;47.568;18.734;2023-05-07T11:21:36;5.65;;;4.12;;
51758;SDS011;66684;47.568;18.734;2023-05-07T11:24:07;7.12;;;3.80;;
51758;SDS011;66684;47.568;18.734;2023-05-07T11:26:47;8.43;;;4.25;;
51758;SDS011;66684;47.568;18.734;2023-05-07T11:29:17;8.90;;;7.25;;
51758;SDS011;66684;47.568;18.734;2023-05-07T11:31:51;12.85;;;8.52;;
51758;SDS011;66684;47.568;18.734;2023-05-07T11:34:22;14.10;;;10.27;;
51758;SDS011;66684;47.568;18.734;2023-05-07T11:36:49;10.65;;;8.18;;
51758;SDS011;66684;47.568;18.734;2023-05-07T11:39:29;4.55;;;3.12;;
51758;SDS011;66684;47.568;18.734;2023-05-07T11:41:59;5.03;;;3.03;;
51758;SDS011;66684;47.568;18.734;2023-05-07T11:44:38;4.78;;;3.60;;
51758;SDS011;66684;47.568;18.734;2023-05-07T11:47:07;3.87;;;3.20;;
51758;SDS011;66684;47.568;18.734;2023-05-07T11:49:33;4.85;;;3.10;;
51758;SDS011;66684;47.568;18.734;2023-05-07T11:51:59;5.18;;;3.08;;
51758;SDS011;66684;47.568;18.734;2023-05-07T11:54:25;3.62;;;3.17;;
51758;SDS011;66684;47.568;18.734;2023-05-07T11:56:51;6.37;;;2.65;;
51758;SDS011;66684;47.568;18.734;2023-05-07T11:59:18;4.93;;;4.20;;
51758;SDS011;66684;47.568;18.734;2023-05-07T12:01:47;4.60;;;3.10;;
51758;SDS011;66684;47.568;18.734;2023-05-07T12:04:13;5.22;;;3.78;;
51758;SDS011;66684;47.568;18.734;2023-05-07T12:06:38;3.33;;;2.97;;
51758;SDS011;66684;47.568;18.734;2023-05-07T12:09:04;5.28;;;3.58;;
51758;SDS011;66684;47.568;18.734;2023-05-07T12:11:32;4.43;;;2.62;;
51758;SDS011;66684;47.568;18.734;2023-05-07T12:13:59;3.78;;;2.67;;
51758;SDS011;66684;47.568;18.734;2023-05-07T12:16:25;4.15;;;3.10;;
51758;SDS011;66684;47.568;18.734;2023-05-07T12:18:52;5.15;;;3.37;;
51758;SDS011;66684;47.568;18.734;2023-05-07T12:21:20;5.70;;;3.60;;
51758;SDS011;66684;47.568;18.734;2023-05-07T12:23:47;4.35;;;3.22;;
51758;SDS011;66684;47.568;18.734;2023-05-07T12:26:13;4.35;;;2.75;;
51758;SDS011;66684;47.568;18.734;2023-05-07T12:28:39;5.47;;;3.65;;
51758;SDS011;66684;47.568;18.734;2023-05-07T12:31:05;5.75;;;3.75;;
51758;SDS011;66684;47.568;18.734;2023-05-07T12:33:32;5.22;;;3.58;;
51758;SDS011;66684;47.568;18.734;2023-05-07T12:35:58;4.70;;;3.37;;
51758;SDS011;66684;47.568;18.734;2023-05-07T12:38:32;5.47;;;3.90;;
51758;SDS011;66684;47.568;18.734;2023-05-07T12:41:00;6.28;;;3.60;;
51758;SDS011;66684;47.568;18.734;2023-05-07T12:43:27;5.90;;;3.22;;
51758;SDS011;66684;47.568;18.734;2023-05-07T12:45:55;4.70;;;2.58;;
51758;SDS011;66684;47.568;18.734;2023-05-07T12:48:22;4.18;;;2.33;;
51758;SDS011;66684;47.568;18.734;2023-05-07T12:50:49;4.40;;;3.33;;
51758;SDS011;66684;47.568;18.734;2023-05-07T12:53:16;10.60;;;4.03;;
51758;SDS011;66684;47.568;18.734;2023-05-07T12:56:44;5.82;;;3.58;;
51758;SDS011;66684;47.568;18.734;2023-05-07T12:59:10;4.18;;;3.17;;
51758;SDS011;66684;47.568;18.734;2023-05-07T13:01:36;3.72;;;2.95;;
51758;SDS011;66684;47.568;18.734;2023-05-07T13:04:05;4.57;;;3.20;;
51758;SDS011;66684;47.568;18.734;2023-05-07T13:06:31;4.12;;;2.83;;
51758;SDS011;66684;47.568;18.734;2023-05-07T13:08:57;4.93;;;2.28;;
51758;SDS011;66684;47.568;18.734;2023-05-07T13:11:22;4.20;;;3.30;;
51758;SDS011;66684;47.568;18.734;2023-05-07T13:13:48;5.95;;;3.92;;
51758;SDS011;66684;47.568;18.734;2023-05-07T13:16:14;3.75;;;2.92;;
51758;SDS011;66684;47.568;18.734;2023-05-07T13:18:40;5.90;;;2.97;;
51758;SDS011;66684;47.568;18.734;2023-05-07T13:21:06;3.20;;;2.70;;
51758;SDS011;66684;47.568;18.734;2023-05-07T13:23:32;4.85;;;2.97;;
51758;SDS011;66684;47.568;18.734;2023-05-07T13:25:58;7.40;;;2.70;;
51758;SDS011;66684;47.568;18.734;2023-05-07T13:28:24;5.03;;;2.37;;
51758;SDS011;66684;47.568;18.734;2023-05-07T13:30:50;4.47;;;2.90;;
51758;SDS011;66684;47.568;18.734;2023-05-07T13:33:17;4.22;;;3.00;;
51758;SDS011;66684;47.568;18.734;2023-05-07T13:35:43;4.28;;;2.83;;
51758;SDS011;66684;47.568;18.734;2023-05-07T13:38:10;4.43;;;3.10;;
51758;SDS011;66684;47.568;18.734;2023-05-07T13:40:36;4.65;;;3.15;;
51758;SDS011;66684;47.568;18.734;2023-05-07T13:43:02;6.47;;;3.97;;
51758;SDS011;66684;47.568;18.734;2023-05-07T13:45:28;7.12;;;3.90;;
51758;SDS011;66684;47.568;18.734;2023-05-07T13:47:55;4.35;;;3.30;;
51758;SDS011;66684;47.568;18.734;2023-05-07T13:50:21;10.18;;;3.40;;
51758;SDS011;66684;47.568;18.734;2023-05-07T13:52:47;7.50;;;3.60;;
51758;SDS011;66684;47.568;18.734;2023-05-07T13:55:19;9.75;;;3.67;;
51758;SDS011;66684;47.568;18.734;2023-05-07T13:57:46;7.95;;;5.12;;
51758;SDS011;66684;47.568;18.734;2023-05-07T14:00:13;5.07;;;4.12;;
51758;SDS011;66684;47.568;18.734;2023-05-07T14:02:40;6.50;;;4.28;;
51758;SDS011;66684;47.568;18.734;2023-05-07T14:05:06;5.87;;;3.90;;
51758;SDS011;66684;47.568;18.734;2023-05-07T14:07:32;6.43;;;4.78;;
51758;SDS011;66684;47.568;18.734;2023-05-07T14:09:58;5.10;;;4.15;;
51758;SDS011;66684;47.568;18.734;2023-05-07T14:12:24;5.68;;;3.92;;
51758;SDS011;66684;47.568;18.734;2023-05-07T14:14:50;5.20;;;3.58;;
51758;SDS011;66684;47.568;18.734;2023-05-07T14:17:16;7.32;;;5.32;;
51758;SDS011;66684;47.568;18.734;2023-05-07T14:19:43;10.18;;;5.87;;
51758;SDS011;66684;47.568;18.734;2023-05-07T14:22:09;7.85;;;6.45;;
51758;SDS011;66684;47.568;18.734;2023-05-07T14:24:35;8.25;;;6.37;;
51758;SDS011;66684;47.568;18.734;2023-05-07T14:27:01;8.25;;;6.40;;
51758;SDS011;66684;47.568;18.734;2023-05-07T14:29:27;7.85;;;5.50;;
51758;SDS011;66684;47.568;18.734;2023-05-07T14:31:53;7.70;;;4.75;;